createdAt,value
2022-09-11T00:01:28.347Z,96182.72
2022-09-11T00:03:56.506Z,96176.16
2022-09-11T00:06:29.912Z,96172.59
2022-09-11T00:09:00.530Z,96165.34
2022-09-11T00:11:29.835Z,96165.59
2022-09-11T00:13:58.850Z,96157.47
2022-09-11T00:16:28.753Z,96158.09
2022-09-11T00:18:59.236Z,96162.94
2022-09-11T00:21:27.348Z,96161.25
2022-09-11T00:23:54.830Z,96169.63
2022-09-11T00:26:24.675Z,96163.19
2022-09-11T00:28:52.535Z,96165.41
2022-09-11T00:31:23.838Z,96160.34
2022-09-11T00:33:51.946Z,96160.50
2022-09-11T00:36:21.047Z,96149.81
2022-09-11T00:38:49.400Z,96153.25
2022-09-11T00:41:19.486Z,96161.34
2022-09-11T00:43:53.625Z,96152.34
2022-09-11T00:46:24.535Z,96149.66
2022-09-11T00:48:52.059Z,96148.88
2022-09-11T00:51:23.984Z,96144.31
2022-09-11T00:53:54.275Z,96146.03
2022-09-11T00:56:24.074Z,96150.75
2022-09-11T00:58:54.737Z,96145.66
2022-09-11T01:01:23.790Z,96135.53
2022-09-11T01:03:51.882Z,96135.03
2022-09-11T01:06:21.174Z,96135.47
2022-09-11T01:08:48.712Z,96141.94
2022-09-11T01:11:34.317Z,96136.31
2022-09-11T01:14:10.476Z,96125.03
2022-09-11T01:16:44.391Z,96131.25
2022-09-11T01:19:28.573Z,96136.34
2022-09-11T01:22:14.702Z,96131.50
2022-09-11T01:24:56.428Z,96131.81
2022-09-11T01:27:42.994Z,96134.91
2022-09-11T01:30:14.151Z,96126.59
2022-09-11T01:33:12.152Z,96128.91
2022-09-11T01:35:50.350Z,96128.72
2022-09-11T01:38:23.088Z,96131.75
2022-09-11T01:40:55.477Z,96127.03
2022-09-11T01:43:28.891Z,96131.38
2022-09-11T01:46:00.282Z,96126.47
2022-09-11T01:48:32.828Z,96129.72
2022-09-11T01:51:03.443Z,96131.38
2022-09-11T01:53:37.366Z,96126.81
2022-09-11T01:56:10.666Z,96131.25
2022-09-11T01:58:42.023Z,96128.03
2022-09-11T02:01:13.165Z,96126.88
2022-09-11T02:03:45.694Z,96121.91
2022-09-11T02:06:18.906Z,96126.41
2022-09-11T02:08:51.672Z,96118.53
2022-09-11T02:11:20.463Z,96117.91
2022-09-11T02:13:56.830Z,96119.66
2022-09-11T02:16:37.944Z,96113.47
2022-09-11T02:19:07.144Z,96116.00
2022-09-11T02:21:35.639Z,96114.09
2022-09-11T02:24:04.090Z,96118.03
2022-09-11T02:26:34.819Z,96113.06
2022-09-11T02:29:04.207Z,96111.00
2022-09-11T02:31:32.218Z,96109.81
2022-09-11T02:33:59.732Z,96107.53
2022-09-11T02:36:53.314Z,96102.94
2022-09-11T02:39:35.149Z,96122.97
2022-09-11T02:42:18.121Z,96119.78
2022-09-11T02:44:59.947Z,96119.00
2022-09-11T02:47:42.247Z,96113.06
2022-09-11T02:50:15.226Z,96108.59
2022-09-11T02:52:49.906Z,96107.97
2022-09-11T02:55:24.019Z,96101.94
2022-09-11T02:57:58.234Z,96106.38
2022-09-11T03:00:27.562Z,96106.31
2022-09-11T03:02:55.360Z,96108.63
2022-09-11T03:05:23.172Z,96102.84
2022-09-11T03:07:50.677Z,96113.13
2022-09-11T03:10:18.156Z,96107.19
2022-09-11T03:12:45.639Z,96101.34
2022-09-11T03:15:13.398Z,96106.19
2022-09-11T03:17:42.799Z,96105.41
2022-09-11T03:20:10.754Z,96102.91
2022-09-11T03:22:39.683Z,96106.38
2022-09-11T03:25:08.143Z,96107.22
2022-09-11T03:27:36.463Z,96107.34
2022-09-11T03:30:04.030Z,96110.97
2022-09-11T03:32:32.292Z,96105.72
2022-09-11T03:35:02.313Z,96101.34
2022-09-11T03:37:29.779Z,96099.56
2022-09-11T03:39:57.278Z,96105.06
2022-09-11T03:42:24.831Z,96095.09
2022-09-11T03:44:52.306Z,96089.66
2022-09-11T03:47:22.123Z,96085.19
2022-09-11T03:49:49.767Z,96084.44
2022-09-11T03:52:18.575Z,96084.16
2022-09-11T03:54:47.576Z,96088.22
2022-09-11T03:57:15.090Z,96087.53
2022-09-11T03:59:42.543Z,96082.66
2022-09-11T04:02:10.063Z,96082.78
2022-09-11T04:04:37.711Z,96081.16
2022-09-11T04:07:05.365Z,96078.19
2022-09-11T04:09:34.322Z,96074.41
2022-09-11T04:12:02.826Z,96079.13
2022-09-11T04:14:30.319Z,96077.97
2022-09-11T04:16:57.747Z,96080.50
2022-09-11T04:19:25.243Z,96080.63
2022-09-11T04:21:52.698Z,96086.81
2022-09-11T04:24:20.160Z,96078.72
2022-09-11T04:26:49.074Z,96075.56
2022-09-11T04:29:17.731Z,96072.94
2022-09-11T04:31:45.334Z,96067.56
2022-09-11T04:34:12.842Z,96066.28
2022-09-11T04:36:40.433Z,96071.59
2022-09-11T04:39:07.912Z,96070.47
2022-09-11T04:41:35.376Z,96071.63
2022-09-11T04:44:05.747Z,96065.97
2022-09-11T04:46:33.405Z,96072.16
2022-09-11T04:49:02.158Z,96069.81
2022-09-11T04:51:32.021Z,96072.19
2022-09-11T04:54:00.975Z,96064.19
2022-09-11T04:56:30.573Z,96072.56
2022-09-11T04:59:00.005Z,96073.06
2022-09-11T05:01:30.870Z,96073.34
2022-09-11T05:04:00.430Z,96078.19
2022-09-11T05:06:30.190Z,96084.72
2022-09-11T05:09:01.427Z,96076.09
2022-09-11T05:11:30.076Z,96084.94
2022-09-11T05:14:00.031Z,96088.66
2022-09-11T05:16:30.905Z,96089.56
2022-09-11T05:19:00.081Z,96097.31
2022-09-11T05:21:29.024Z,96100.13
2022-09-11T05:23:58.543Z,96106.06
2022-09-11T05:26:27.853Z,96099.31
2022-09-11T05:28:56.194Z,96110.03
2022-09-11T05:31:25.266Z,96111.72
2022-09-11T05:33:55.821Z,96123.22
2022-09-11T05:36:24.524Z,96134.97
2022-09-11T05:38:52.772Z,96130.28
2022-09-11T05:41:20.948Z,96137.91
2022-09-11T05:43:48.571Z,96132.66
2022-09-11T05:46:18.201Z,96139.94
2022-09-11T05:48:46.176Z,96143.25
2022-09-11T05:51:17.112Z,96141.50
2022-09-11T05:53:46.019Z,96146.16
2022-09-11T05:56:15.806Z,96153.47
2022-09-11T05:58:43.716Z,96152.69
2022-09-11T06:01:13.265Z,96149.06
2022-09-11T06:03:41.168Z,96156.03
2022-09-11T06:06:10.726Z,96167.44
2022-09-11T06:08:40.092Z,96171.84
2022-09-11T06:11:08.751Z,96183.56
2022-09-11T06:13:39.388Z,96182.72
2022-09-11T06:16:12.571Z,96190.28
2022-09-11T06:18:42.184Z,96195.84
2022-09-11T06:21:13.154Z,96198.94
2022-09-11T06:23:42.142Z,96196.56
2022-09-11T06:26:11.992Z,96184.13
2022-09-11T06:28:40.239Z,96192.59
2022-09-11T06:31:10.674Z,96204.34
2022-09-11T06:33:40.248Z,96214.09
2022-09-11T06:36:11.119Z,96218.34
2022-09-11T06:38:39.119Z,96209.28
2022-09-11T06:41:10.368Z,96205.63
2022-09-11T06:43:37.832Z,96212.28
2022-09-11T06:46:05.751Z,96210.31
2022-09-11T06:48:33.682Z,96222.94
2022-09-11T06:51:03.944Z,96219.75
2022-09-11T06:53:31.486Z,96216.78
2022-09-11T06:56:02.320Z,96210.78
2022-09-11T06:58:31.485Z,96190.50
2022-09-11T07:01:03.774Z,96192.53
2022-09-11T07:03:31.612Z,96179.94
2022-09-11T07:05:59.291Z,96174.84
2022-09-11T07:08:26.861Z,96188.41
2022-09-11T07:10:54.600Z,96190.19
2022-09-11T07:13:24.342Z,96188.38
2022-09-11T07:16:02.211Z,96191.75
2022-09-11T07:18:34.117Z,96198.63
2022-09-11T07:21:01.619Z,96197.88
2022-09-11T07:23:29.080Z,96205.66
2022-09-11T07:25:56.536Z,96202.94
2022-09-11T07:28:25.376Z,96208.69
2022-09-11T07:30:52.876Z,96202.69
2022-09-11T07:33:23.027Z,96206.25
2022-09-11T07:35:52.266Z,96225.56
2022-09-11T07:38:19.712Z,96209.59
2022-09-11T07:40:47.691Z,96215.38
2022-09-11T07:43:15.271Z,96226.56
2022-09-11T07:45:42.764Z,96221.97
2022-09-11T07:48:10.316Z,96229.63
2022-09-11T07:50:39.075Z,96233.91
2022-09-11T07:53:07.083Z,96230.47
2022-09-11T07:55:35.532Z,96238.75
2022-09-11T07:58:02.951Z,96234.19
2022-09-11T08:00:35.141Z,96253.91
2022-09-11T08:03:04.621Z,96253.06
2022-09-11T08:05:32.054Z,96249.19
2022-09-11T08:08:00.809Z,96255.88
2022-09-11T08:10:28.407Z,96258.78
2022-09-11T08:12:59.552Z,96263.72
2022-09-11T08:15:27.720Z,96270.59
2022-09-11T08:17:55.154Z,96282.91
2022-09-11T08:20:22.667Z,96283.28
2022-09-11T08:22:50.370Z,96280.59
2022-09-11T08:25:19.212Z,96282.47
2022-09-11T08:27:46.620Z,96289.81
2022-09-11T08:30:14.204Z,96290.53
2022-09-11T08:32:41.626Z,96298.00
2022-09-11T08:35:09.583Z,96305.47
2022-09-11T08:37:37.013Z,96303.53
2022-09-11T08:40:04.905Z,96313.47
2022-09-11T08:42:35.628Z,96305.31
2022-09-11T08:45:06.663Z,96305.13
2022-09-11T08:47:37.831Z,96318.00
2022-09-11T08:50:10.483Z,96316.75
2022-09-11T08:52:38.438Z,96316.28
2022-09-11T08:55:06.800Z,96323.13
2022-09-11T08:57:45.004Z,96315.09
2022-09-11T09:00:19.840Z,96312.22
2022-09-11T09:03:21.342Z,96305.56
2022-09-11T09:05:55.591Z,96318.63
2022-09-11T09:08:40.378Z,96321.53
2022-09-11T09:11:20.364Z,96335.66
2022-09-11T09:14:05.831Z,96336.88
2022-09-11T09:16:45.300Z,96346.13
2022-09-11T09:19:17.341Z,96341.25
2022-09-11T09:21:50.499Z,96350.53
2022-09-11T09:24:20.287Z,96346.63
2022-09-11T09:26:52.566Z,96348.81
2022-09-11T09:29:23.842Z,96349.00
2022-09-11T09:31:59.252Z,96344.16
2022-09-11T09:34:34.694Z,96343.50
2022-09-11T09:37:07.551Z,96345.66
2022-09-11T09:39:36.509Z,96348.19
2022-09-11T09:42:28.186Z,96352.72
2022-09-11T09:45:20.143Z,96350.28
2022-09-11T09:47:49.301Z,96345.72
2022-09-11T09:50:20.169Z,96353.97
2022-09-11T09:52:49.806Z,96349.25
2022-09-11T09:55:19.919Z,96360.41
2022-09-11T09:57:47.515Z,96361.03
2022-09-11T10:00:19.951Z,96356.34
2022-09-11T10:02:51.566Z,96356.22
2022-09-11T10:05:24.999Z,96353.53
2022-09-11T10:07:54.214Z,96355.00
2022-09-11T10:10:24.832Z,96358.97
2022-09-11T10:12:59.904Z,96365.72
2022-09-11T10:15:42.895Z,96365.13
2022-09-11T10:18:35.883Z,96361.16
2022-09-11T10:21:16.737Z,96363.28
2022-09-11T10:23:46.936Z,96364.06
2022-09-11T10:26:18.042Z,96357.28
2022-09-11T10:28:46.898Z,96366.81
2022-09-11T10:31:17.381Z,96369.88
2022-09-11T10:33:49.995Z,96377.28
2022-09-11T10:36:23.439Z,96374.38
2022-09-11T10:38:51.876Z,96365.78
2022-09-11T10:41:22.868Z,96372.91
2022-09-11T10:43:55.909Z,96381.63
2022-09-11T10:46:39.871Z,96380.41
2022-09-11T10:49:18.495Z,96381.22
2022-09-11T10:52:00.000Z,96370.75
2022-09-11T10:54:39.139Z,96382.78
2022-09-11T10:57:16.110Z,96379.66
2022-09-11T10:59:51.352Z,96391.47
2022-09-11T11:02:28.498Z,96383.94
2022-09-11T11:04:57.067Z,96380.28
2022-09-11T11:07:45.110Z,96388.34
2022-09-11T11:10:24.347Z,96382.00
2022-09-11T11:13:05.117Z,96386.53
2022-09-11T11:15:46.479Z,96381.50
2022-09-11T11:18:31.259Z,96391.75
2022-09-11T11:21:12.815Z,96391.59
2022-09-11T11:23:51.648Z,96395.13
2022-09-11T11:26:37.570Z,96388.13
2022-09-11T11:29:31.824Z,96394.06
2022-09-11T11:32:14.403Z,96405.09
2022-09-11T11:35:03.058Z,96396.66
2022-09-11T11:37:34.918Z,96396.91
2022-09-11T11:40:06.493Z,96401.00
2022-09-11T11:42:38.614Z,96394.72
2022-09-11T11:45:11.546Z,96396.06
2022-09-11T11:47:44.675Z,96397.34
2022-09-11T11:50:21.311Z,96398.84
2022-09-11T11:52:57.931Z,96392.44
2022-09-11T11:55:27.898Z,96401.16
2022-09-11T11:58:02.328Z,96400.94
2022-09-11T12:00:31.530Z,96408.06
2022-09-11T12:03:05.684Z,96402.63
2022-09-11T12:05:36.188Z,96404.97
2022-09-11T12:08:04.635Z,96409.78
2022-09-11T12:10:35.357Z,96406.88
2022-09-11T12:13:07.309Z,96421.72
2022-09-11T12:15:35.658Z,96417.78
2022-09-11T12:18:05.431Z,96418.19
2022-09-11T12:20:40.710Z,96415.00
2022-09-11T12:23:35.678Z,96415.03
2022-09-11T12:26:19.779Z,96415.78
2022-09-11T12:28:47.506Z,96408.34
2022-09-11T12:31:16.558Z,96411.31
2022-09-11T12:33:54.479Z,96415.81
2022-09-11T12:36:30.902Z,96412.91
2022-09-11T12:39:03.455Z,96413.25
2022-09-11T12:41:33.703Z,96417.63
2022-09-11T12:44:01.840Z,96413.06
2022-09-11T12:47:11.829Z,96403.75
2022-09-11T12:49:41.393Z,96399.78
2022-09-11T12:52:24.796Z,96390.88
2022-09-11T12:54:52.994Z,96406.25
2022-09-11T12:57:27.131Z,96401.81
2022-09-11T12:59:59.302Z,96399.06
2022-09-11T13:02:34.276Z,96401.66
2022-09-11T13:05:02.542Z,96401.03
2022-09-11T13:07:44.302Z,96395.97
2022-09-11T13:10:30.348Z,96387.28
2022-09-11T13:12:59.230Z,96381.91
2022-09-11T13:15:38.702Z,96379.06
2022-09-11T13:18:43.666Z,96387.06
2022-09-11T13:21:17.257Z,96390.03
2022-09-11T13:23:46.963Z,96393.22
2022-09-11T13:26:26.869Z,96386.41
2022-09-11T13:28:57.908Z,96390.63
2022-09-11T13:31:33.690Z,96392.44
2022-09-11T13:34:03.769Z,96399.06
2022-09-11T13:36:33.156Z,96404.50
2022-09-11T13:39:04.983Z,96398.25
2022-09-11T13:41:37.710Z,96401.34
2022-09-11T13:44:11.380Z,96399.25
2022-09-11T13:46:50.007Z,96399.00
2022-09-11T13:49:29.809Z,96396.25
2022-09-11T13:51:57.298Z,96406.38
2022-09-11T13:54:30.151Z,96401.25
2022-09-11T13:57:14.881Z,96404.13
2022-09-11T13:59:48.178Z,96402.84
2022-09-11T14:02:46.350Z,96410.56
2022-09-11T14:05:20.462Z,96405.09
2022-09-11T14:07:57.249Z,96402.03
2022-09-11T14:10:29.955Z,96402.25
2022-09-11T14:13:04.123Z,96408.28
2022-09-11T14:15:40.064Z,96409.78
2022-09-11T14:18:14.615Z,96402.91
2022-09-11T14:20:45.712Z,96410.19
2022-09-11T14:23:19.940Z,96405.41
2022-09-11T14:26:14.752Z,96399.06
2022-09-11T14:28:45.780Z,96400.78
2022-09-11T14:31:14.956Z,96396.81
2022-09-11T14:33:42.948Z,96402.09
2022-09-11T14:36:19.405Z,96404.19
2022-09-11T14:38:48.108Z,96397.59
2022-09-11T14:41:16.922Z,96401.97
2022-09-11T14:43:48.854Z,96397.38
2022-09-11T14:46:16.905Z,96392.22
2022-09-11T14:48:44.479Z,96400.94
2022-09-11T14:51:13.684Z,96398.75
2022-09-11T14:53:43.383Z,96395.63
2022-09-11T14:56:11.092Z,96395.19
2022-09-11T14:58:40.219Z,96400.22
2022-09-11T15:01:07.681Z,96383.84
2022-09-11T15:03:35.225Z,96395.19
2022-09-11T15:06:02.738Z,96380.66
2022-09-11T15:08:30.232Z,96390.75
2022-09-11T15:10:57.667Z,96380.00
2022-09-11T15:13:25.231Z,96384.47
2022-09-11T15:15:54.045Z,96376.28
2022-09-11T15:18:21.875Z,96378.72
2022-09-11T15:20:49.343Z,96384.78
2022-09-11T15:23:17.388Z,96379.66
2022-09-11T15:25:44.908Z,96396.28
2022-09-11T15:28:12.555Z,96388.69
2022-09-11T15:30:40.025Z,96389.75
2022-09-11T15:33:09.399Z,96388.25
2022-09-11T15:35:36.863Z,96394.41
2022-09-11T15:38:05.592Z,96396.03
2022-09-11T15:40:33.212Z,96389.44
2022-09-11T15:43:00.650Z,96391.06
2022-09-11T15:45:28.128Z,96396.53
2022-09-11T15:47:55.575Z,96398.59
2022-09-11T15:50:28.279Z,96393.97
2022-09-11T15:52:55.769Z,96402.97
2022-09-11T15:55:23.292Z,96390.81
2022-09-11T15:57:50.760Z,96395.16
2022-09-11T16:00:18.345Z,96394.41
2022-09-11T16:02:45.812Z,96397.94
2022-09-11T16:05:14.431Z,96399.41
2022-09-11T16:07:43.224Z,96395.81
2022-09-11T16:10:10.971Z,96388.44
2022-09-11T16:12:39.497Z,96380.63
2022-09-11T16:15:07.968Z,96377.94
2022-09-11T16:17:35.418Z,96384.97
2022-09-11T16:20:03.287Z,96388.28
2022-09-11T16:22:31.311Z,96383.09
2022-09-11T16:25:00.421Z,96387.06
2022-09-11T16:27:27.914Z,96392.22
2022-09-11T16:32:43.300Z,96390.09
2022-09-11T16:35:13.270Z,96397.75
2022-09-11T16:37:41.204Z,96395.22
2022-09-11T16:40:10.806Z,96401.22
2022-09-11T16:42:38.292Z,96392.59
2022-09-11T16:45:06.612Z,96403.53
2022-09-11T16:47:34.598Z,96398.13
2022-09-11T16:50:07.481Z,96403.50
2022-09-11T16:52:35.583Z,96406.09
2022-09-11T16:55:03.461Z,96405.25
2022-09-11T16:57:32.465Z,96402.56
2022-09-11T17:00:00.082Z,96409.97
2022-09-11T17:02:27.806Z,96408.13
2022-09-11T17:04:55.274Z,96406.03
2022-09-11T17:07:23.680Z,96410.97
2022-09-11T17:09:51.122Z,96405.22
2022-09-11T17:12:18.585Z,96414.72
2022-09-11T17:14:47.395Z,96410.16
2022-09-11T17:17:14.856Z,96406.81
2022-09-11T17:19:42.683Z,96402.88
2022-09-11T17:22:10.260Z,96410.31
2022-09-11T17:24:37.756Z,96409.97
2022-09-11T17:27:05.514Z,96408.50
2022-09-11T17:29:32.992Z,96413.03
2022-09-11T17:32:26.139Z,96404.97
2022-09-11T17:34:49.242Z,96403.78
2022-09-11T17:37:16.966Z,96403.59
2022-09-11T17:39:44.794Z,96408.59
2022-09-11T17:42:13.456Z,96416.84
2022-09-11T17:44:42.331Z,96409.34
2022-09-11T17:47:11.172Z,96414.03
2022-09-11T17:49:38.735Z,96407.28
2022-09-11T17:52:07.196Z,96414.56
2022-09-11T17:54:34.867Z,96411.44
2022-09-11T17:57:02.408Z,96415.19
2022-09-11T17:59:29.918Z,96422.69
2022-09-11T18:01:58.982Z,96411.91
2022-09-11T18:04:27.874Z,96423.09
2022-09-11T18:06:55.336Z,96412.63
2022-09-11T18:09:23.146Z,96418.25
2022-09-11T18:11:53.779Z,96419.34
2022-09-11T18:14:21.580Z,96431.25
2022-09-11T18:16:49.288Z,96432.06
2022-09-11T18:19:20.137Z,96428.53
2022-09-11T18:21:50.504Z,96429.16
2022-09-11T18:24:20.516Z,96429.22
2022-09-11T18:26:50.712Z,96428.16
2022-09-11T18:29:20.257Z,96424.69
2022-09-11T18:31:50.144Z,96420.31
2022-09-11T18:34:20.055Z,96423.41
2022-09-11T18:36:49.654Z,96424.88
2022-09-11T18:39:19.351Z,96427.59
2022-09-11T18:41:48.274Z,96428.81
2022-09-11T18:44:19.857Z,96430.44
2022-09-11T18:46:47.889Z,96438.94
2022-09-11T18:49:16.600Z,96439.94
2022-09-11T18:51:44.318Z,96436.97
2022-09-11T18:54:15.434Z,96436.91
2022-09-11T18:56:43.549Z,96448.81
2022-09-11T18:59:11.846Z,96441.38
2022-09-11T19:01:39.936Z,96443.72
2022-09-11T19:04:10.060Z,96445.94
2022-09-11T19:06:39.490Z,96440.84
2022-09-11T19:09:10.094Z,96451.59
2022-09-11T19:11:39.461Z,96454.06
2022-09-11T19:14:09.337Z,96448.16
2022-09-11T19:16:37.920Z,96455.78
2022-09-11T19:19:06.954Z,96449.06
2022-09-11T19:21:35.125Z,96453.66
2022-09-11T19:24:03.236Z,96454.94
2022-09-11T19:26:32.598Z,96462.00
2022-09-11T19:29:01.899Z,96456.75
2022-09-11T19:31:30.357Z,96460.47
2022-09-11T19:34:00.728Z,96460.47
2022-09-11T19:36:30.140Z,96461.25
2022-09-11T19:39:00.630Z,96456.13
2022-09-11T19:41:30.940Z,96459.34
2022-09-11T19:44:00.381Z,96465.25
2022-09-11T19:46:31.523Z,96455.72
2022-09-11T19:49:01.364Z,96454.41
2022-09-11T19:51:30.780Z,96463.09
2022-09-11T19:54:00.672Z,96453.69
2022-09-11T19:56:29.220Z,96456.00
2022-09-11T19:58:56.946Z,96449.63
2022-09-11T20:01:26.339Z,96454.38
2022-09-11T20:03:56.397Z,96457.44
2022-09-11T20:06:25.513Z,96454.53
2022-09-11T20:09:13.383Z,96457.06
2022-09-11T20:11:41.583Z,96452.16
2022-09-11T20:14:09.481Z,96456.25
2022-09-11T20:16:37.168Z,96456.09
2022-09-11T20:19:06.577Z,96456.53
2022-09-11T20:21:36.005Z,96465.41
2022-09-11T20:24:05.170Z,96464.41
2022-09-11T20:26:33.327Z,96464.56
2022-09-11T20:29:02.905Z,96458.56
2022-09-11T20:31:32.431Z,96462.19
2022-09-11T20:34:00.856Z,96458.69
2022-09-11T20:36:30.211Z,96464.94
2022-09-11T20:39:00.620Z,96459.78
2022-09-11T20:41:30.443Z,96462.63
2022-09-11T20:44:00.523Z,96460.56
2022-09-11T20:46:28.233Z,96456.75
2022-09-11T20:48:55.843Z,96458.72
2022-09-11T20:51:24.138Z,96463.50
2022-09-11T20:53:52.983Z,96461.41
2022-09-11T20:56:23.405Z,96457.72
2022-09-11T20:58:51.414Z,96460.66
2022-09-11T21:01:22.315Z,96461.47
2022-09-11T21:03:52.337Z,96461.03
2022-09-11T21:06:25.386Z,96462.31
2022-09-11T21:08:56.546Z,96458.00
2022-09-11T21:11:24.487Z,96458.00
2022-09-11T21:13:52.320Z,96454.00
2022-09-11T21:16:20.531Z,96450.31
2022-09-11T21:18:50.269Z,96451.34
2022-09-11T21:21:18.745Z,96455.00
2022-09-11T21:23:46.545Z,96451.75
2022-09-11T21:26:18.059Z,96448.66
2022-09-11T21:28:45.936Z,96444.06
2022-09-11T21:31:13.964Z,96447.69
2022-09-11T21:33:41.572Z,96452.25
2022-09-11T21:36:09.182Z,96450.34
2022-09-11T21:38:37.576Z,96448.16
2022-09-11T21:41:06.953Z,96452.44
2022-09-11T21:43:36.307Z,96450.84
2022-09-11T21:46:05.287Z,96456.25
2022-09-11T21:48:35.922Z,96454.69
2022-09-11T21:51:07.848Z,96446.91
2022-09-11T21:53:35.413Z,96448.41
2022-09-11T21:56:03.363Z,96441.31
2022-09-11T21:58:31.008Z,96443.66
2022-09-11T22:01:05.870Z,96444.34
2022-09-11T22:03:34.396Z,96443.00
2022-09-11T22:06:06.540Z,96438.22
2022-09-11T22:08:35.247Z,96432.50
2022-09-11T22:11:04.202Z,96433.25
2022-09-11T22:13:32.290Z,96435.78
2022-09-11T22:16:00.327Z,96433.31
2022-09-11T22:18:29.228Z,96441.28
2022-09-11T22:21:00.346Z,96444.19
2022-09-11T22:23:29.349Z,96440.94
2022-09-11T22:26:00.496Z,96445.91
2022-09-11T22:28:28.537Z,96447.50
2022-09-11T22:30:56.229Z,96438.19
2022-09-11T22:33:24.173Z,96439.22
2022-09-11T22:35:53.064Z,96441.50
2022-09-11T22:38:20.514Z,96436.78
2022-09-11T22:40:53.149Z,96431.81
2022-09-11T22:43:20.621Z,96438.34
2022-09-11T22:45:52.045Z,96445.41
2022-09-11T22:48:19.571Z,96434.78
2022-09-11T22:50:47.593Z,96431.94
2022-09-11T22:53:16.463Z,96438.72
2022-09-11T22:55:44.738Z,96435.53
2022-09-11T22:58:12.560Z,96433.66
2022-09-11T23:00:40.947Z,96433.97
2022-09-11T23:03:08.569Z,96436.53
2022-09-11T23:05:53.961Z,96442.00
2022-09-11T23:08:22.841Z,96438.22
2022-09-11T23:10:50.266Z,96435.31
2022-09-11T23:13:17.708Z,96438.63
2022-09-11T23:15:45.166Z,96439.91
2022-09-11T23:18:12.603Z,96444.47
2022-09-11T23:20:40.080Z,96434.97
2022-09-11T23:23:07.615Z,96442.56
2022-09-11T23:25:42.096Z,96442.38
2022-09-11T23:28:09.552Z,96445.38
2022-09-11T23:30:39.228Z,96436.09
2022-09-11T23:33:07.094Z,96438.50
2022-09-11T23:35:34.729Z,96443.56
2022-09-11T23:38:02.176Z,96441.00
2022-09-11T23:40:33.326Z,96440.63
2022-09-11T23:43:02.735Z,96438.41
2022-09-11T23:45:30.403Z,96439.44
2022-09-11T23:47:57.955Z,96430.91
2022-09-11T23:50:25.403Z,96437.88
2022-09-11T23:52:52.860Z,96431.06
2022-09-11T23:55:20.432Z,96423.41
2022-09-11T23:57:48.094Z,96422.88
